createdAt,value
2018-07-22T00:00:42.713Z,80.96
2018-07-22T00:03:11.211Z,80.89
2018-07-22T00:05:39.676Z,80.59
2018-07-22T00:08:08.248Z,80.34
2018-07-22T00:10:36.720Z,80.55
2018-07-22T00:13:05.334Z,81.00
2018-07-22T00:15:33.848Z,81.05
2018-07-22T00:18:02.341Z,81.30
2018-07-22T00:20:31.185Z,80.97
2018-07-22T00:22:59.685Z,80.95
2018-07-22T00:25:28.197Z,80.83
2018-07-22T00:27:56.790Z,80.06
2018-07-22T00:30:25.362Z,80.60
2018-07-22T00:32:53.875Z,81.15
2018-07-22T00:35:22.398Z,80.66
2018-07-22T00:37:50.901Z,80.82
2018-07-22T00:40:19.452Z,80.21
2018-07-22T00:42:47.973Z,80.95
2018-07-22T00:45:16.515Z,81.21
2018-07-22T00:47:45.080Z,81.47
2018-07-22T00:50:13.573Z,81.19
2018-07-22T00:52:42.105Z,81.33
2018-07-22T00:55:10.597Z,81.54
2018-07-22T00:57:39.152Z,81.30
2018-07-22T01:00:08.302Z,80.68
2018-07-22T01:02:36.784Z,82.08
2018-07-22T01:05:05.992Z,81.35
2018-07-22T01:07:34.462Z,81.63
2018-07-22T01:10:02.979Z,81.23
2018-07-22T01:12:31.497Z,81.58
2018-07-22T01:14:59.996Z,81.49
2018-07-22T01:17:29.019Z,81.72
2018-07-22T01:19:57.589Z,81.04
2018-07-22T01:22:26.103Z,81.83
2018-07-22T01:24:54.645Z,81.68
2018-07-22T01:27:23.209Z,82.48
2018-07-22T01:29:51.836Z,82.44
2018-07-22T01:32:20.401Z,81.86
2018-07-22T01:34:48.885Z,81.83
2018-07-22T01:37:17.633Z,81.90
2018-07-22T01:39:46.173Z,81.92
2018-07-22T01:42:14.672Z,82.31
2018-07-22T01:44:43.128Z,81.86
2018-07-22T01:47:11.655Z,82.35
2018-07-22T01:49:40.127Z,82.70
2018-07-22T01:52:08.592Z,83.03
2018-07-22T01:54:37.521Z,83.37
2018-07-22T01:57:06.190Z,83.19
2018-07-22T01:59:34.657Z,83.40
2018-07-22T02:02:03.177Z,83.42
2018-07-22T02:04:31.813Z,83.02
2018-07-22T02:07:00.317Z,82.58
2018-07-22T02:09:28.789Z,83.18
2018-07-22T02:11:57.338Z,82.64
2018-07-22T02:14:26.238Z,83.07
2018-07-22T02:16:54.728Z,83.09
2018-07-22T02:19:23.248Z,83.35
2018-07-22T02:21:51.764Z,82.98
2018-07-22T02:24:20.277Z,83.40
2018-07-22T02:26:48.884Z,83.56
2018-07-22T02:29:17.456Z,83.42
2018-07-22T02:31:45.941Z,83.73
2018-07-22T02:34:14.439Z,83.29
2018-07-22T02:36:42.993Z,83.23
2018-07-22T02:39:13.001Z,82.78
2018-07-22T02:41:41.687Z,83.34
2018-07-22T02:44:10.534Z,82.84
2018-07-22T02:46:38.989Z,82.28
2018-07-22T02:49:07.546Z,82.37
2018-07-22T02:51:36.101Z,82.08
2018-07-22T02:54:04.946Z,82.01
2018-07-22T02:56:33.403Z,82.64
2018-07-22T02:59:04.698Z,82.79
2018-07-22T03:01:35.005Z,82.73
2018-07-22T03:04:03.674Z,82.82
2018-07-22T03:06:32.617Z,82.76
2018-07-22T03:09:01.117Z,82.59
2018-07-22T03:11:29.686Z,82.62
2018-07-22T03:13:58.159Z,82.38
2018-07-22T03:16:26.645Z,82.29
2018-07-22T03:18:55.181Z,83.23
2018-07-22T03:21:23.748Z,82.38
2018-07-22T03:23:52.243Z,82.69
2018-07-22T03:26:20.709Z,82.70
2018-07-22T03:28:49.201Z,82.42
2018-07-22T03:31:17.652Z,82.17
2018-07-22T03:33:46.183Z,82.47
2018-07-22T03:36:14.657Z,83.05
2018-07-22T03:38:43.531Z,82.78
2018-07-22T03:41:11.998Z,82.72
2018-07-22T03:43:40.485Z,82.25
2018-07-22T03:46:08.969Z,81.72
2018-07-22T03:48:37.461Z,82.21
2018-07-22T03:51:05.943Z,82.29
2018-07-22T03:53:34.418Z,82.05
2018-07-22T03:56:02.888Z,81.42
2018-07-22T03:58:31.356Z,81.05
2018-07-22T04:00:59.902Z,80.55
2018-07-22T04:03:28.436Z,80.13
2018-07-22T04:05:57.023Z,80.17
2018-07-22T04:08:25.629Z,80.47
2018-07-22T04:10:54.157Z,80.50
2018-07-22T04:13:22.674Z,81.21
2018-07-22T04:15:51.166Z,80.56
2018-07-22T04:18:19.648Z,80.29
2018-07-22T04:20:48.177Z,80.53
2018-07-22T04:23:16.621Z,80.50
2018-07-22T04:25:45.073Z,80.52
2018-07-22T04:28:13.602Z,81.08
2018-07-22T04:30:42.090Z,81.19
2018-07-22T04:33:10.608Z,80.90
2018-07-22T04:35:39.088Z,80.48
2018-07-22T04:38:07.664Z,80.85
2018-07-22T04:40:36.226Z,79.80
2018-07-22T04:43:04.750Z,77.86
2018-07-22T04:45:33.204Z,78.85
2018-07-22T04:48:01.749Z,78.83
2018-07-22T04:50:30.293Z,76.71
2018-07-22T04:52:58.757Z,77.24
2018-07-22T04:55:27.361Z,76.51
2018-07-22T04:57:55.870Z,77.85
2018-07-22T05:00:24.350Z,76.99
2018-07-22T05:02:52.908Z,77.26
2018-07-22T05:05:21.385Z,77.17
2018-07-22T05:07:49.866Z,76.00
2018-07-22T05:10:18.412Z,74.48
2018-07-22T05:12:46.900Z,73.34
2018-07-22T05:15:15.377Z,74.08
2018-07-22T05:17:44.217Z,70.10
2018-07-22T05:20:12.687Z,68.42
2018-07-22T05:22:41.158Z,69.62
2018-07-22T05:25:09.681Z,67.51
2018-07-22T05:27:38.180Z,64.52
2018-07-22T05:30:06.695Z,65.90
2018-07-22T05:32:35.172Z,64.39
2018-07-22T05:35:03.753Z,66.13
2018-07-22T05:37:32.377Z,63.13
2018-07-22T05:40:00.889Z,64.67
2018-07-22T05:42:29.565Z,64.68
2018-07-22T05:44:58.048Z,63.47
2018-07-22T05:47:26.905Z,66.36
2018-07-22T05:49:55.398Z,63.99
2018-07-22T05:52:23.905Z,63.58
2018-07-22T05:54:52.390Z,64.13
2018-07-22T05:57:20.857Z,62.65
2018-07-22T05:59:49.514Z,61.87
2018-07-22T06:02:18.106Z,61.32
2018-07-22T06:04:46.644Z,59.32
2018-07-22T06:07:15.091Z,58.73
2018-07-22T06:09:43.565Z,59.75
2018-07-22T06:12:12.318Z,59.77
2018-07-22T06:14:41.191Z,58.52
2018-07-22T06:17:09.677Z,55.27
2018-07-22T06:19:38.258Z,56.33
2018-07-22T06:22:06.821Z,56.28
2018-07-22T06:24:35.298Z,54.51
2018-07-22T06:27:03.851Z,55.43
2018-07-22T06:29:32.346Z,55.06
2018-07-22T06:32:00.824Z,54.43
2018-07-22T06:34:29.336Z,54.46
2018-07-22T06:36:57.898Z,56.34
2018-07-22T06:39:26.741Z,53.73
2018-07-22T06:41:55.251Z,51.25
2018-07-22T06:44:23.781Z,52.31
2018-07-22T06:46:52.339Z,52.19
2018-07-22T06:49:20.858Z,52.55
2018-07-22T06:51:49.381Z,54.20
2018-07-22T06:54:17.930Z,55.10
2018-07-22T06:56:46.392Z,54.62
2018-07-22T06:59:14.885Z,56.58
2018-07-22T07:01:43.757Z,57.73
2018-07-22T07:04:12.229Z,59.90
2018-07-22T07:06:40.762Z,58.68
2018-07-22T07:09:11.045Z,56.10
2018-07-22T07:11:39.749Z,57.12
2018-07-22T07:14:08.440Z,56.76
2018-07-22T07:16:37.237Z,57.72
2018-07-22T07:19:05.784Z,57.39
2018-07-22T07:21:34.270Z,55.60
2018-07-22T07:24:02.774Z,56.49
2018-07-22T07:26:31.284Z,56.71
2018-07-22T07:28:59.804Z,57.32
2018-07-22T07:31:28.292Z,57.41
2018-07-22T07:33:56.778Z,58.03
2018-07-22T07:36:25.314Z,56.24
2018-07-22T07:38:53.817Z,56.39
2018-07-22T07:41:22.292Z,55.46
2018-07-22T07:43:50.782Z,55.10
2018-07-22T07:46:19.711Z,56.05
2018-07-22T07:48:48.591Z,56.77
2018-07-22T07:51:17.065Z,56.60
2018-07-22T07:53:45.550Z,56.70
2018-07-22T07:56:14.071Z,56.33
2018-07-22T07:58:42.597Z,56.54
2018-07-22T08:01:11.084Z,56.77
2018-07-22T08:03:39.556Z,57.80
2018-07-22T08:06:08.094Z,59.13
2018-07-22T08:08:36.611Z,58.92
2018-07-22T08:11:05.149Z,58.72
2018-07-22T08:13:33.625Z,58.37
2018-07-22T08:16:02.086Z,56.55
2018-07-22T08:18:30.958Z,57.92
2018-07-22T08:20:59.428Z,56.46
2018-07-22T08:23:27.960Z,55.71
2018-07-22T08:25:56.490Z,56.62
2018-07-22T08:28:36.106Z,56.30
2018-07-22T08:31:04.634Z,56.47
2018-07-22T08:33:33.155Z,56.13
2018-07-22T08:36:01.618Z,56.82
2018-07-22T08:38:30.103Z,55.69
2018-07-22T08:40:58.924Z,54.76
2018-07-22T08:43:27.424Z,55.51
2018-07-22T08:45:55.932Z,55.54
2018-07-22T08:48:24.481Z,55.41
2018-07-22T08:50:52.982Z,55.30
2018-07-22T08:53:21.472Z,56.16
2018-07-22T08:55:50.021Z,54.74
2018-07-22T08:58:18.703Z,54.67
2018-07-22T09:00:47.266Z,54.15
2018-07-22T09:03:15.732Z,54.56
2018-07-22T09:05:44.185Z,55.29
2018-07-22T09:08:12.752Z,55.60
2018-07-22T09:10:41.231Z,56.14
2018-07-22T09:13:09.736Z,55.53
2018-07-22T09:15:38.196Z,54.64
2018-07-22T09:18:06.819Z,53.01
2018-07-22T09:20:35.285Z,53.15
2018-07-22T09:23:03.816Z,53.42
2018-07-22T09:25:32.284Z,54.35
2018-07-22T09:28:00.786Z,53.48
2018-07-22T09:30:29.632Z,51.92
2018-07-22T09:32:58.104Z,52.62
2018-07-22T09:35:26.604Z,54.66
2018-07-22T09:37:55.141Z,53.50
2018-07-22T09:40:23.636Z,52.79
2018-07-22T09:42:52.139Z,52.73
2018-07-22T09:45:20.582Z,52.83
2018-07-22T09:47:49.439Z,53.92
2018-07-22T09:50:17.937Z,53.21
2018-07-22T09:52:46.441Z,52.95
2018-07-22T09:55:14.957Z,54.43
2018-07-22T09:57:43.441Z,54.64
2018-07-22T10:00:15.189Z,53.52
2018-07-22T10:02:43.749Z,52.51
2018-07-22T10:05:12.274Z,52.73
2018-07-22T10:07:40.747Z,51.53
2018-07-22T10:10:09.577Z,52.79
2018-07-22T10:12:38.044Z,50.70
2018-07-22T10:15:06.993Z,49.71
2018-07-22T10:17:35.558Z,49.19
2018-07-22T10:20:04.214Z,49.15
2018-07-22T10:22:32.741Z,49.45
2018-07-22T10:25:01.252Z,49.72
2018-07-22T10:27:29.796Z,51.88
2018-07-22T10:29:58.328Z,52.76
2018-07-22T10:32:26.861Z,51.12
2018-07-22T10:34:55.369Z,52.44
2018-07-22T10:37:23.876Z,50.25
2018-07-22T10:39:52.446Z,51.39
2018-07-22T10:42:20.914Z,51.54
2018-07-22T10:44:49.381Z,50.99
2018-07-22T10:47:17.907Z,51.41
2018-07-22T10:49:46.453Z,49.17
2018-07-22T10:52:15.166Z,49.94
2018-07-22T10:54:43.686Z,50.63
2018-07-22T10:57:12.346Z,48.48
2018-07-22T10:59:41.236Z,50.56
2018-07-22T11:02:09.798Z,49.12
2018-07-22T11:04:38.376Z,47.94
2018-07-22T11:07:06.876Z,50.67
2018-07-22T11:09:35.428Z,50.23
2018-07-22T11:12:03.973Z,51.08
2018-07-22T11:14:32.531Z,50.54
2018-07-22T11:17:00.997Z,48.98
2018-07-22T11:19:29.505Z,48.46
2018-07-22T11:21:58.252Z,49.70
2018-07-22T11:24:26.871Z,49.70
2018-07-22T11:26:55.574Z,50.21
2018-07-22T11:29:24.130Z,50.46
2018-07-22T11:31:52.717Z,49.00
2018-07-22T11:34:21.231Z,49.58
2018-07-22T11:36:49.790Z,49.35
2018-07-22T11:39:18.510Z,47.69
2018-07-22T11:41:47.052Z,47.85
2018-07-22T11:44:15.585Z,48.48
2018-07-22T11:46:44.100Z,47.61
2018-07-22T11:49:13.030Z,47.84
2018-07-22T11:51:41.517Z,47.79
2018-07-22T11:54:10.038Z,47.81
2018-07-22T11:56:38.560Z,47.33
2018-07-22T11:59:07.089Z,46.42
2018-07-22T12:01:35.605Z,46.01
2018-07-22T12:04:04.789Z,46.48
2018-07-22T12:06:33.268Z,47.37
2018-07-22T12:09:01.777Z,48.80
2018-07-22T12:11:30.269Z,47.79
2018-07-22T12:13:58.889Z,46.24
2018-07-22T12:16:27.473Z,45.98
2018-07-22T12:18:56.000Z,47.43
2018-07-22T12:21:24.580Z,47.59
2018-07-22T12:23:53.131Z,47.24
2018-07-22T12:26:21.644Z,47.92
2018-07-22T12:28:50.128Z,46.37
2018-07-22T12:31:18.732Z,45.29
2018-07-22T12:33:47.245Z,46.18
2018-07-22T12:36:15.741Z,46.01
2018-07-22T12:38:44.276Z,46.29
2018-07-22T12:41:12.786Z,46.23
2018-07-22T12:43:41.296Z,47.71
2018-07-22T12:46:09.808Z,47.60
2018-07-22T12:48:38.318Z,48.34
2018-07-22T12:51:07.084Z,47.16
2018-07-22T12:53:35.608Z,46.65
2018-07-22T12:56:04.142Z,46.53
2018-07-22T12:58:32.633Z,45.82
2018-07-22T13:01:01.126Z,46.07
2018-07-22T13:03:29.661Z,47.61
2018-07-22T13:05:58.224Z,46.37
2018-07-22T13:08:26.725Z,47.87
2018-07-22T13:10:55.320Z,45.66
2018-07-22T13:13:23.979Z,45.73
2018-07-22T13:15:52.490Z,46.07
2018-07-22T13:18:21.169Z,45.34
2018-07-22T13:20:49.682Z,46.59
2018-07-22T13:23:18.509Z,45.84
2018-07-22T13:25:47.061Z,45.82
2018-07-22T13:28:15.684Z,45.65
2018-07-22T13:30:44.259Z,46.53
2018-07-22T13:33:12.876Z,44.05
2018-07-22T13:35:41.425Z,43.64
2018-07-22T13:38:10.364Z,44.06
2018-07-22T13:40:38.810Z,43.52
2018-07-22T13:43:07.450Z,45.40
2018-07-22T13:45:36.055Z,44.65
2018-07-22T13:48:04.509Z,44.73
2018-07-22T13:50:32.972Z,42.84
2018-07-22T13:53:01.466Z,43.56
2018-07-22T13:55:29.980Z,44.89
2018-07-22T13:57:58.540Z,44.69
2018-07-22T14:00:27.090Z,43.67
2018-07-22T14:02:55.609Z,42.69
2018-07-22T14:05:24.152Z,42.72
2018-07-22T14:07:52.695Z,43.28
2018-07-22T14:10:21.216Z,43.01
2018-07-22T14:12:49.665Z,43.23
2018-07-22T14:15:18.137Z,43.89
2018-07-22T14:17:47.159Z,43.84
2018-07-22T14:20:15.653Z,43.42
2018-07-22T14:22:44.140Z,42.19
2018-07-22T14:25:12.707Z,41.86
2018-07-22T14:27:41.294Z,41.86
2018-07-22T14:30:10.242Z,43.57
2018-07-22T14:32:38.730Z,44.09
2018-07-22T14:35:07.298Z,42.97
2018-07-22T14:37:35.785Z,44.74
2018-07-22T14:40:04.569Z,42.46
2018-07-22T14:42:33.061Z,42.54
2018-07-22T14:45:01.611Z,42.90
2018-07-22T14:47:30.081Z,43.98
2018-07-22T14:49:58.600Z,43.59
2018-07-22T14:52:27.098Z,42.65
2018-07-22T14:54:56.017Z,42.62
2018-07-22T14:57:24.544Z,43.00
2018-07-22T14:59:53.034Z,43.71
2018-07-22T15:02:21.509Z,44.92
2018-07-22T15:04:49.977Z,44.20
2018-07-22T15:07:18.640Z,42.30
2018-07-22T15:09:47.119Z,41.19
2018-07-22T15:12:15.580Z,40.99
2018-07-22T15:14:44.150Z,42.19
2018-07-22T15:17:12.638Z,42.69
2018-07-22T15:19:41.121Z,41.71
2018-07-22T15:22:09.683Z,43.02
2018-07-22T15:24:38.128Z,43.33
2018-07-22T15:27:06.580Z,42.80
2018-07-22T15:29:35.165Z,43.51
2018-07-22T15:32:03.628Z,43.72
2018-07-22T15:34:32.109Z,43.62
2018-07-22T15:37:00.612Z,43.29
2018-07-22T15:39:29.120Z,43.48
2018-07-22T15:41:57.657Z,42.95
2018-07-22T15:44:26.191Z,43.81
2018-07-22T15:46:54.764Z,43.68
2018-07-22T15:49:23.265Z,43.92
2018-07-22T15:51:51.728Z,44.34
2018-07-22T15:54:20.277Z,44.53
2018-07-22T15:56:48.801Z,44.27
2018-07-22T15:59:17.285Z,44.40
2018-07-22T16:01:45.817Z,44.54
2018-07-22T16:04:14.336Z,45.13
2018-07-22T16:06:42.801Z,44.35
2018-07-22T16:09:12.287Z,43.55
2018-07-22T16:11:41.646Z,43.04
2018-07-22T16:14:10.201Z,43.33
2018-07-22T16:16:38.744Z,43.18
2018-07-22T16:19:07.244Z,43.20
2018-07-22T16:21:35.793Z,43.93
2018-07-22T16:24:04.405Z,44.39
2018-07-22T16:26:32.890Z,42.10
2018-07-22T16:29:01.386Z,42.86
2018-07-22T16:31:29.896Z,42.65
2018-07-22T16:33:58.473Z,41.68
2018-07-22T16:36:27.052Z,41.93
2018-07-22T16:38:55.569Z,41.11
2018-07-22T16:41:24.105Z,42.33
2018-07-22T16:43:52.602Z,42.94
2018-07-22T16:46:21.097Z,42.18
2018-07-22T16:48:49.612Z,42.58
2018-07-22T16:51:18.092Z,43.00
2018-07-22T16:53:46.616Z,42.93
2018-07-22T16:56:15.081Z,42.44
2018-07-22T16:58:43.661Z,42.90
2018-07-22T17:01:12.141Z,41.19
2018-07-22T17:03:40.664Z,43.05
2018-07-22T17:06:09.236Z,42.06
2018-07-22T17:08:37.748Z,41.91
2018-07-22T17:11:06.330Z,42.26
2018-07-22T17:13:34.850Z,42.33
2018-07-22T17:16:03.372Z,42.56
2018-07-22T17:18:31.848Z,42.66
2018-07-22T17:21:00.781Z,43.06
2018-07-22T17:23:29.315Z,43.91
2018-07-22T17:25:57.796Z,43.33
2018-07-22T17:28:26.384Z,43.43
2018-07-22T17:30:54.889Z,43.90
2018-07-22T17:33:23.420Z,43.72
2018-07-22T17:35:52.267Z,43.95
2018-07-22T17:38:20.800Z,44.56
2018-07-22T17:40:49.268Z,44.45
2018-07-22T17:43:17.743Z,44.59
2018-07-22T17:45:46.269Z,44.68
2018-07-22T17:48:14.796Z,45.41
2018-07-22T17:50:43.339Z,45.12
2018-07-22T17:53:11.816Z,44.94
2018-07-22T17:55:40.277Z,45.13
2018-07-22T17:58:08.787Z,45.13
2018-07-22T18:00:37.304Z,44.86
2018-07-22T18:03:29.046Z,45.87
2018-07-22T18:05:57.654Z,45.43
2018-07-22T18:08:26.192Z,46.82
2018-07-22T18:10:55.152Z,47.01
2018-07-22T18:13:23.685Z,47.43
2018-07-22T18:15:52.237Z,47.57
2018-07-22T18:18:20.747Z,47.91
2018-07-22T18:20:49.660Z,48.75
2018-07-22T18:23:18.142Z,48.83
2018-07-22T18:25:46.996Z,49.29
2018-07-22T18:28:16.605Z,48.32
2018-07-22T18:30:45.577Z,48.41
2018-07-22T18:33:14.087Z,49.24
2018-07-22T18:35:42.556Z,49.05
2018-07-22T18:38:11.128Z,50.14
2018-07-22T18:40:39.689Z,49.16
2018-07-22T18:43:08.173Z,48.56
2018-07-22T18:45:36.710Z,49.97
2018-07-22T18:48:05.340Z,50.11
2018-07-22T18:50:33.856Z,49.37
2018-07-22T18:53:02.369Z,49.35
2018-07-22T18:55:30.908Z,50.24
2018-07-22T18:57:59.416Z,50.33
2018-07-22T19:00:27.994Z,50.25
2018-07-22T19:02:56.585Z,50.98
2018-07-22T19:05:25.192Z,50.68
2018-07-22T19:07:53.689Z,50.94
2018-07-22T19:10:22.233Z,50.78
2018-07-22T19:12:50.714Z,51.19
2018-07-22T19:15:19.217Z,51.23
2018-07-22T19:17:47.808Z,50.45
2018-07-22T19:20:16.294Z,51.66
2018-07-22T19:22:44.769Z,51.54
2018-07-22T19:25:13.278Z,52.19
2018-07-22T19:27:42.697Z,52.40
2018-07-22T19:30:11.353Z,53.37
2018-07-22T19:32:39.813Z,52.96
2018-07-22T19:35:08.363Z,54.00
2018-07-22T19:37:36.923Z,54.15
2018-07-22T19:40:05.719Z,54.96
2018-07-22T19:42:34.158Z,55.00
2018-07-22T19:45:02.656Z,54.45
2018-07-22T19:47:31.217Z,54.93
2018-07-22T19:49:59.697Z,54.76
2018-07-22T19:52:28.169Z,55.49
2018-07-22T19:54:56.662Z,54.22
2018-07-22T19:57:25.132Z,55.25
2018-07-22T19:59:53.682Z,54.97
2018-07-22T20:02:22.202Z,55.43
2018-07-22T20:04:50.704Z,55.49
2018-07-22T20:07:19.191Z,55.56
2018-07-22T20:09:47.629Z,55.85
2018-07-22T20:12:16.149Z,55.71
2018-07-22T20:14:44.629Z,54.63
2018-07-22T20:17:13.150Z,54.93
2018-07-22T20:19:41.702Z,55.35
2018-07-22T20:22:10.204Z,55.75
2018-07-22T20:24:38.695Z,55.73
2018-07-22T20:27:07.208Z,55.25
2018-07-22T20:29:35.686Z,54.71
2018-07-22T20:32:04.186Z,55.13
2018-07-22T20:34:32.716Z,54.65
2018-07-22T20:37:01.245Z,54.59
2018-07-22T20:39:29.736Z,54.74
2018-07-22T20:41:58.308Z,55.12
2018-07-22T20:44:26.776Z,55.62
2018-07-22T20:46:55.260Z,55.95
2018-07-22T20:49:23.893Z,56.55
2018-07-22T20:51:52.438Z,56.22
2018-07-22T20:54:20.909Z,56.44
2018-07-22T20:56:49.561Z,56.19
2018-07-22T20:59:18.045Z,56.66
2018-07-22T21:01:46.496Z,56.99
2018-07-22T21:04:15.000Z,57.54
2018-07-22T21:06:43.484Z,57.35
2018-07-22T21:09:11.962Z,57.46
2018-07-22T21:11:51.584Z,57.64
2018-07-22T21:14:20.085Z,57.41
2018-07-22T21:16:48.593Z,57.48
2018-07-22T21:19:17.153Z,57.47
2018-07-22T21:21:45.670Z,57.65
2018-07-22T21:24:14.222Z,58.03
2018-07-22T21:26:42.750Z,57.79
2018-07-22T21:29:11.241Z,58.27
2018-07-22T21:31:39.742Z,58.53
2018-07-22T21:34:08.676Z,58.89
2018-07-22T21:36:37.218Z,59.09
2018-07-22T21:39:08.216Z,58.88
2018-07-22T21:41:36.680Z,59.55
2018-07-22T21:44:05.173Z,59.75
2018-07-22T21:46:33.720Z,59.14
2018-07-22T21:49:02.205Z,59.67
2018-07-22T21:51:31.300Z,59.73
2018-07-22T21:53:59.793Z,60.15
2018-07-22T21:56:28.282Z,59.82
2018-07-22T21:58:56.796Z,60.04
2018-07-22T22:01:25.270Z,60.06
2018-07-22T22:03:53.717Z,60.54
2018-07-22T22:06:22.212Z,60.29
2018-07-22T22:08:50.705Z,60.49
2018-07-22T22:11:19.218Z,61.04
2018-07-22T22:13:47.718Z,60.49
2018-07-22T22:16:16.252Z,59.79
2018-07-22T22:18:44.838Z,60.73
2018-07-22T22:21:13.425Z,61.63
2018-07-22T22:23:42.189Z,62.26
2018-07-22T22:26:10.759Z,62.54
2018-07-22T22:28:39.192Z,63.79
2018-07-22T22:31:07.660Z,63.90
2018-07-22T22:33:36.163Z,63.93
2018-07-22T22:36:04.627Z,64.52
2018-07-22T22:38:33.128Z,65.31
2018-07-22T22:41:01.659Z,65.39
2018-07-22T22:43:30.210Z,65.76
2018-07-22T22:45:58.731Z,65.92
2018-07-22T22:48:27.193Z,65.86
2018-07-22T22:50:55.673Z,66.15
2018-07-22T22:53:24.160Z,66.66
2018-07-22T22:55:52.677Z,67.79
2018-07-22T22:58:32.314Z,67.88
2018-07-22T23:01:00.864Z,68.73
2018-07-22T23:03:29.380Z,69.07
2018-07-22T23:05:57.900Z,69.29
2018-07-22T23:08:26.420Z,69.82
2018-07-22T23:10:54.985Z,70.19
2018-07-22T23:13:23.482Z,70.14
2018-07-22T23:15:52.060Z,70.12
2018-07-22T23:18:20.636Z,70.41
2018-07-22T23:20:55.996Z,70.30
2018-07-22T23:23:24.486Z,69.95
2018-07-22T23:25:52.944Z,70.82
2018-07-22T23:28:21.464Z,70.74
2018-07-22T23:30:49.936Z,70.75
2018-07-22T23:33:18.735Z,70.68
2018-07-22T23:35:47.311Z,71.12
2018-07-22T23:38:15.946Z,71.24
2018-07-22T23:40:44.481Z,71.00
2018-07-22T23:43:12.956Z,71.58
2018-07-22T23:45:41.446Z,71.43
2018-07-22T23:48:10.006Z,71.07
2018-07-22T23:50:38.477Z,71.61
2018-07-22T23:53:07.192Z,71.63
2018-07-22T23:55:35.892Z,72.26
2018-07-22T23:58:04.433Z,72.36
